sensor_id;sensor_type;location;lat;lon;timestamp;P1;durP1;ratioP1;P2;durP2;ratioP2
20298;SDS011;10308;42.688;23.256;2022-09-21T00:01:11;1.63;;;1.52;;
20298;SDS011;10308;42.688;23.256;2022-09-21T00:03:42;1.85;;;1.75;;
20298;SDS011;10308;42.688;23.256;2022-09-21T00:06:10;1.60;;;1.50;;
20298;SDS011;10308;42.688;23.256;2022-09-21T00:08:38;1.83;;;1.73;;
20298;SDS011;10308;42.688;23.256;2022-09-21T00:11:05;2.38;;;1.60;;
20298;SDS011;10308;42.688;23.256;2022-09-21T00:13:33;1.98;;;1.67;;
20298;SDS011;10308;42.688;23.256;2022-09-21T00:16:03;2.67;;;1.88;;
20298;SDS011;10308;42.688;23.256;2022-09-21T00:18:31;1.98;;;1.88;;
20298;SDS011;10308;42.688;23.256;2022-09-21T00:20:59;2.17;;;2.05;;
20298;SDS011;10308;42.688;23.256;2022-09-21T00:23:26;2.60;;;2.10;;
20298;SDS011;10308;42.688;23.256;2022-09-21T00:26:02;2.30;;;2.20;;
20298;SDS011;10308;42.688;23.256;2022-09-21T00:28:31;2.60;;;2.40;;
20298;SDS011;10308;42.688;23.256;2022-09-21T00:31:00;2.83;;;2.63;;
20298;SDS011;10308;42.688;23.256;2022-09-21T00:33:28;2.78;;;2.28;;
20298;SDS011;10308;42.688;23.256;2022-09-21T00:35:54;3.22;;;2.92;;
20298;SDS011;10308;42.688;23.256;2022-09-21T00:38:23;3.10;;;2.80;;
20298;SDS011;10308;42.688;23.256;2022-09-21T00:40:49;2.65;;;2.45;;
20298;SDS011;10308;42.688;23.256;2022-09-21T00:43:16;2.72;;;2.53;;
20298;SDS011;10308;42.688;23.256;2022-09-21T00:45:43;2.78;;;2.58;;
20298;SDS011;10308;42.688;23.256;2022-09-21T00:48:12;2.80;;;2.60;;
20298;SDS011;10308;42.688;23.256;2022-09-21T00:50:41;2.72;;;2.50;;
20298;SDS011;10308;42.688;23.256;2022-09-21T00:53:09;3.90;;;2.70;;
20298;SDS011;10308;42.688;23.256;2022-09-21T00:55:38;4.45;;;2.80;;
20298;SDS011;10308;42.688;23.256;2022-09-21T00:58:08;4.15;;;3.10;;
20298;SDS011;10308;42.688;23.256;2022-09-21T01:00:37;3.28;;;2.97;;
20298;SDS011;10308;42.688;23.256;2022-09-21T01:03:04;3.38;;;2.88;;
20298;SDS011;10308;42.688;23.256;2022-09-21T01:05:32;3.95;;;3.00;;
20298;SDS011;10308;42.688;23.256;2022-09-21T01:07:59;3.22;;;2.90;;
20298;SDS011;10308;42.688;23.256;2022-09-21T01:10:28;2.95;;;2.75;;
20298;SDS011;10308;42.688;23.256;2022-09-21T01:13:02;2.33;;;2.22;;
20298;SDS011;10308;42.688;23.256;2022-09-21T01:15:34;2.45;;;2.15;;
20298;SDS011;10308;42.688;23.256;2022-09-21T01:18:07;3.25;;;2.10;;
20298;SDS011;10308;42.688;23.256;2022-09-21T01:26:38;1.80;;;1.70;;
20298;SDS011;10308;42.688;23.256;2022-09-21T01:29:17;1.70;;;1.60;;
20298;SDS011;10308;42.688;23.256;2022-09-21T01:31:47;1.90;;;1.80;;
20298;SDS011;10308;42.688;23.256;2022-09-21T01:34:19;1.70;;;1.60;;
20298;SDS011;10308;42.688;23.256;2022-09-21T01:36:49;2.20;;;2.00;;
20298;SDS011;10308;42.688;23.256;2022-09-21T01:39:19;2.10;;;1.90;;
20298;SDS011;10308;42.688;23.256;2022-09-21T01:41:47;2.00;;;1.90;;
20298;SDS011;10308;42.688;23.256;2022-09-21T01:44:18;2.45;;;1.80;;
20298;SDS011;10308;42.688;23.256;2022-09-21T01:46:46;2.03;;;1.92;;
20298;SDS011;10308;42.688;23.256;2022-09-21T01:49:15;1.80;;;1.70;;
20298;SDS011;10308;42.688;23.256;2022-09-21T01:51:44;2.13;;;1.73;;
20298;SDS011;10308;42.688;23.256;2022-09-21T01:54:15;1.95;;;1.80;;
20298;SDS011;10308;42.688;23.256;2022-09-21T01:56:46;2.63;;;2.20;;
20298;SDS011;10308;42.688;23.256;2022-09-21T01:59:18;3.50;;;2.22;;
20298;SDS011;10308;42.688;23.256;2022-09-21T02:01:48;2.20;;;1.90;;
20298;SDS011;10308;42.688;23.256;2022-09-21T02:04:17;2.80;;;2.22;;
20298;SDS011;10308;42.688;23.256;2022-09-21T02:06:45;2.45;;;2.25;;
20298;SDS011;10308;42.688;23.256;2022-09-21T02:09:12;2.28;;;2.08;;
20298;SDS011;10308;42.688;23.256;2022-09-21T02:11:39;2.33;;;2.13;;
20298;SDS011;10308;42.688;23.256;2022-09-21T02:14:08;2.30;;;1.90;;
20298;SDS011;10308;42.688;23.256;2022-09-21T02:16:38;2.97;;;2.70;;
20298;SDS011;10308;42.688;23.256;2022-09-21T02:19:11;2.67;;;2.50;;
20298;SDS011;10308;42.688;23.256;2022-09-21T02:21:44;2.95;;;2.75;;
20298;SDS011;10308;42.688;23.256;2022-09-21T02:24:19;2.88;;;2.65;;
20298;SDS011;10308;42.688;23.256;2022-09-21T02:26:52;3.03;;;2.80;;
20298;SDS011;10308;42.688;23.256;2022-09-21T02:29:22;3.28;;;2.70;;
20298;SDS011;10308;42.688;23.256;2022-09-21T02:31:52;3.97;;;2.72;;
20298;SDS011;10308;42.688;23.256;2022-09-21T02:34:23;2.80;;;2.20;;
20298;SDS011;10308;42.688;23.256;2022-09-21T02:36:53;2.42;;;2.15;;
20298;SDS011;10308;42.688;23.256;2022-09-21T02:39:26;3.30;;;2.45;;
20298;SDS011;10308;42.688;23.256;2022-09-21T02:41:59;2.20;;;2.10;;
20298;SDS011;10308;42.688;23.256;2022-09-21T02:44:29;2.53;;;2.33;;
20298;SDS011;10308;42.688;23.256;2022-09-21T02:47:00;2.35;;;2.15;;
20298;SDS011;10308;42.688;23.256;2022-09-21T02:49:30;2.70;;;2.50;;
20298;SDS011;10308;42.688;23.256;2022-09-21T02:52:00;3.65;;;2.47;;
20298;SDS011;10308;42.688;23.256;2022-09-21T02:54:31;3.60;;;2.55;;
20298;SDS011;10308;42.688;23.256;2022-09-21T02:56:58;4.22;;;2.63;;
20298;SDS011;10308;42.688;23.256;2022-09-21T02:59:26;2.70;;;2.50;;
20298;SDS011;10308;42.688;23.256;2022-09-21T03:01:53;2.63;;;2.42;;
20298;SDS011;10308;42.688;23.256;2022-09-21T03:04:22;2.70;;;2.40;;
20298;SDS011;10308;42.688;23.256;2022-09-21T03:06:49;3.45;;;2.75;;
20298;SDS011;10308;42.688;23.256;2022-09-21T03:09:17;2.75;;;2.40;;
20298;SDS011;10308;42.688;23.256;2022-09-21T03:11:48;2.63;;;2.42;;
20298;SDS011;10308;42.688;23.256;2022-09-21T03:14:15;2.92;;;2.72;;
20298;SDS011;10308;42.688;23.256;2022-09-21T03:16:44;3.53;;;3.20;;
20298;SDS011;10308;42.688;23.256;2022-09-21T03:19:11;4.32;;;3.55;;
20298;SDS011;10308;42.688;23.256;2022-09-21T03:21:39;4.38;;;2.78;;
20298;SDS011;10308;42.688;23.256;2022-09-21T03:24:06;3.70;;;3.05;;
20298;SDS011;10308;42.688;23.256;2022-09-21T03:26:33;3.40;;;3.05;;
20298;SDS011;10308;42.688;23.256;2022-09-21T03:29:01;5.15;;;2.83;;
20298;SDS011;10308;42.688;23.256;2022-09-21T03:31:31;4.05;;;3.00;;
20298;SDS011;10308;42.688;23.256;2022-09-21T03:33:58;3.97;;;2.72;;
20298;SDS011;10308;42.688;23.256;2022-09-21T03:36:25;3.30;;;2.60;;
20298;SDS011;10308;42.688;23.256;2022-09-21T03:38:53;4.50;;;2.72;;
20298;SDS011;10308;42.688;23.256;2022-09-21T03:41:20;3.38;;;2.50;;
20298;SDS011;10308;42.688;23.256;2022-09-21T03:43:46;3.35;;;2.70;;
20298;SDS011;10308;42.688;23.256;2022-09-21T03:46:13;4.80;;;3.20;;
20298;SDS011;10308;42.688;23.256;2022-09-21T03:48:41;4.82;;;3.00;;
20298;SDS011;10308;42.688;23.256;2022-09-21T03:51:11;4.18;;;2.70;;
20298;SDS011;10308;42.688;23.256;2022-09-21T03:53:38;3.00;;;2.80;;
20298;SDS011;10308;42.688;23.256;2022-09-21T03:56:06;5.47;;;2.78;;
20298;SDS011;10308;42.688;23.256;2022-09-21T03:58:33;5.00;;;3.05;;
20298;SDS011;10308;42.688;23.256;2022-09-21T04:01:00;6.10;;;3.05;;
20298;SDS011;10308;42.688;23.256;2022-09-21T04:03:27;3.30;;;3.00;;
20298;SDS011;10308;42.688;23.256;2022-09-21T04:05:54;4.28;;;2.90;;
20298;SDS011;10308;42.688;23.256;2022-09-21T04:08:21;3.58;;;3.22;;
20298;SDS011;10308;42.688;23.256;2022-09-21T04:10:48;6.45;;;3.30;;
20298;SDS011;10308;42.688;23.256;2022-09-21T04:13:16;4.25;;;3.63;;
20298;SDS011;10308;42.688;23.256;2022-09-21T04:15:43;7.05;;;4.70;;
20298;SDS011;10308;42.688;23.256;2022-09-21T04:18:09;9.25;;;4.95;;
20298;SDS011;10308;42.688;23.256;2022-09-21T04:20:37;7.97;;;4.22;;
20298;SDS011;10308;42.688;23.256;2022-09-21T04:23:05;5.75;;;4.25;;
20298;SDS011;10308;42.688;23.256;2022-09-21T04:25:32;7.07;;;4.20;;
20298;SDS011;10308;42.688;23.256;2022-09-21T04:27:59;8.85;;;4.20;;
20298;SDS011;10308;42.688;23.256;2022-09-21T04:30:28;5.47;;;4.40;;
20298;SDS011;10308;42.688;23.256;2022-09-21T04:32:55;4.50;;;4.00;;
20298;SDS011;10308;42.688;23.256;2022-09-21T04:35:21;8.82;;;4.72;;
20298;SDS011;10308;42.688;23.256;2022-09-21T04:37:48;7.80;;;5.03;;
20298;SDS011;10308;42.688;23.256;2022-09-21T04:40:15;10.80;;;5.15;;
20298;SDS011;10308;42.688;23.256;2022-09-21T04:42:42;9.55;;;5.72;;
20298;SDS011;10308;42.688;23.256;2022-09-21T04:45:09;12.80;;;5.93;;
20298;SDS011;10308;42.688;23.256;2022-09-21T04:47:37;12.93;;;6.15;;
20298;SDS011;10308;42.688;23.256;2022-09-21T04:50:05;8.40;;;5.50;;
20298;SDS011;10308;42.688;23.256;2022-09-21T04:52:32;9.65;;;5.18;;
20298;SDS011;10308;42.688;23.256;2022-09-21T04:54:59;6.95;;;4.88;;
20298;SDS011;10308;42.688;23.256;2022-09-21T04:57:25;6.30;;;4.95;;
20298;SDS011;10308;42.688;23.256;2022-09-21T04:59:52;8.05;;;4.72;;
20298;SDS011;10308;42.688;23.256;2022-09-21T05:02:19;11.40;;;4.93;;
20298;SDS011;10308;42.688;23.256;2022-09-21T05:04:47;8.15;;;5.43;;
20298;SDS011;10308;42.688;23.256;2022-09-21T05:07:15;6.13;;;3.72;;
20298;SDS011;10308;42.688;23.256;2022-09-21T05:09:41;3.55;;;3.03;;
20298;SDS011;10308;42.688;23.256;2022-09-21T05:12:25;6.10;;;3.10;;
20298;SDS011;10308;42.688;23.256;2022-09-21T05:14:52;6.03;;;3.83;;
20298;SDS011;10308;42.688;23.256;2022-09-21T05:17:20;3.80;;;3.20;;
20298;SDS011;10308;42.688;23.256;2022-09-21T05:19:49;4.22;;;3.28;;
20298;SDS011;10308;42.688;23.256;2022-09-21T05:22:16;5.93;;;3.35;;
20298;SDS011;10308;42.688;23.256;2022-09-21T05:24:43;5.13;;;2.95;;
20298;SDS011;10308;42.688;23.256;2022-09-21T05:27:09;4.13;;;3.50;;
20298;SDS011;10308;42.688;23.256;2022-09-21T05:29:37;4.28;;;3.30;;
20298;SDS011;10308;42.688;23.256;2022-09-21T05:32:05;7.18;;;3.72;;
20298;SDS011;10308;42.688;23.256;2022-09-21T05:34:37;7.20;;;3.80;;
20298;SDS011;10308;42.688;23.256;2022-09-21T05:37:11;5.97;;;3.38;;
20298;SDS011;10308;42.688;23.256;2022-09-21T05:39:43;4.45;;;3.58;;
20298;SDS011;10308;42.688;23.256;2022-09-21T05:42:11;4.72;;;3.75;;
20298;SDS011;10308;42.688;23.256;2022-09-21T05:44:38;4.80;;;3.72;;
20298;SDS011;10308;42.688;23.256;2022-09-21T05:47:07;6.65;;;3.40;;
20298;SDS011;10308;42.688;23.256;2022-09-21T05:49:44;4.00;;;3.05;;
20298;SDS011;10308;42.688;23.256;2022-09-21T05:52:18;3.47;;;2.50;;
20298;SDS011;10308;42.688;23.256;2022-09-21T05:54:51;2.80;;;2.50;;
20298;SDS011;10308;42.688;23.256;2022-09-21T05:57:27;2.75;;;2.55;;
20298;SDS011;10308;42.688;23.256;2022-09-21T06:00:05;3.00;;;2.80;;
20298;SDS011;10308;42.688;23.256;2022-09-21T06:02:48;3.97;;;2.97;;
20298;SDS011;10308;42.688;23.256;2022-09-21T06:05:20;3.80;;;2.72;;
20298;SDS011;10308;42.688;23.256;2022-09-21T06:07:48;4.15;;;3.40;;
20298;SDS011;10308;42.688;23.256;2022-09-21T06:10:15;3.65;;;2.85;;
20298;SDS011;10308;42.688;23.256;2022-09-21T06:12:42;3.15;;;2.67;;
20298;SDS011;10308;42.688;23.256;2022-09-21T06:15:10;3.92;;;2.40;;
20298;SDS011;10308;42.688;23.256;2022-09-21T06:17:40;3.20;;;2.53;;
20298;SDS011;10308;42.688;23.256;2022-09-21T06:20:07;5.15;;;2.90;;
20298;SDS011;10308;42.688;23.256;2022-09-21T06:22:34;3.05;;;2.55;;
20298;SDS011;10308;42.688;23.256;2022-09-21T06:25:03;2.70;;;2.50;;
20298;SDS011;10308;42.688;23.256;2022-09-21T06:27:33;2.90;;;2.60;;
20298;SDS011;10308;42.688;23.256;2022-09-21T06:29:59;2.70;;;2.47;;
20298;SDS011;10308;42.688;23.256;2022-09-21T06:32:26;2.40;;;2.20;;
20298;SDS011;10308;42.688;23.256;2022-09-21T06:34:53;2.97;;;2.45;;
20298;SDS011;10308;42.688;23.256;2022-09-21T06:37:20;3.28;;;2.97;;
20298;SDS011;10308;42.688;23.256;2022-09-21T06:39:47;4.13;;;2.95;;
20298;SDS011;10308;42.688;23.256;2022-09-21T06:42:15;2.78;;;2.58;;
20298;SDS011;10308;42.688;23.256;2022-09-21T06:44:41;2.83;;;2.60;;
20298;SDS011;10308;42.688;23.256;2022-09-21T06:47:08;2.97;;;2.53;;
20298;SDS011;10308;42.688;23.256;2022-09-21T06:49:35;3.00;;;2.50;;
20298;SDS011;10308;42.688;23.256;2022-09-21T06:52:02;3.03;;;2.65;;
20298;SDS011;10308;42.688;23.256;2022-09-21T06:54:29;3.33;;;2.60;;
20298;SDS011;10308;42.688;23.256;2022-09-21T06:56:56;3.53;;;2.50;;
20298;SDS011;10308;42.688;23.256;2022-09-21T06:59:24;2.88;;;2.58;;
20298;SDS011;10308;42.688;23.256;2022-09-21T07:01:51;2.95;;;2.70;;
20298;SDS011;10308;42.688;23.256;2022-09-21T07:04:21;2.83;;;2.40;;
20298;SDS011;10308;42.688;23.256;2022-09-21T07:06:48;4.45;;;3.40;;
20298;SDS011;10308;42.688;23.256;2022-09-21T07:09:15;3.17;;;2.80;;
20298;SDS011;10308;42.688;23.256;2022-09-21T07:11:42;2.85;;;2.63;;
20298;SDS011;10308;42.688;23.256;2022-09-21T07:14:09;3.20;;;2.83;;
20298;SDS011;10308;42.688;23.256;2022-09-21T07:16:37;4.03;;;3.20;;
20298;SDS011;10308;42.688;23.256;2022-09-21T07:19:04;2.30;;;2.10;;
20298;SDS011;10308;42.688;23.256;2022-09-21T07:21:31;2.38;;;2.17;;
20298;SDS011;10308;42.688;23.256;2022-09-21T07:23:58;2.63;;;1.95;;
20298;SDS011;10308;42.688;23.256;2022-09-21T07:26:26;2.78;;;2.10;;
20298;SDS011;10308;42.688;23.256;2022-09-21T07:28:52;2.38;;;2.10;;
20298;SDS011;10308;42.688;23.256;2022-09-21T07:31:19;2.60;;;2.00;;
20298;SDS011;10308;42.688;23.256;2022-09-21T07:33:48;2.53;;;2.13;;
20298;SDS011;10308;42.688;23.256;2022-09-21T07:36:15;2.53;;;2.13;;
20298;SDS011;10308;42.688;23.256;2022-09-21T07:38:42;2.72;;;2.53;;
20298;SDS011;10308;42.688;23.256;2022-09-21T07:41:09;2.58;;;2.17;;
20298;SDS011;10308;42.688;23.256;2022-09-21T07:43:38;2.72;;;2.13;;
20298;SDS011;10308;42.688;23.256;2022-09-21T07:46:04;2.00;;;1.90;;
20298;SDS011;10308;42.688;23.256;2022-09-21T07:48:31;2.55;;;2.20;;
20298;SDS011;10308;42.688;23.256;2022-09-21T07:51:03;2.40;;;2.20;;
20298;SDS011;10308;42.688;23.256;2022-09-21T07:53:31;2.03;;;1.92;;
20298;SDS011;10308;42.688;23.256;2022-09-21T07:56:01;2.55;;;2.30;;
20298;SDS011;10308;42.688;23.256;2022-09-21T07:58:29;2.58;;;2.38;;
20298;SDS011;10308;42.688;23.256;2022-09-21T08:01:13;2.50;;;2.30;;
20298;SDS011;10308;42.688;23.256;2022-09-21T08:03:40;3.53;;;2.00;;
20298;SDS011;10308;42.688;23.256;2022-09-21T08:06:08;3.42;;;2.10;;
20298;SDS011;10308;42.688;23.256;2022-09-21T08:08:35;4.05;;;2.15;;
20298;SDS011;10308;42.688;23.256;2022-09-21T08:11:02;4.07;;;2.70;;
20298;SDS011;10308;42.688;23.256;2022-09-21T08:13:29;4.80;;;2.90;;
20298;SDS011;10308;42.688;23.256;2022-09-21T08:15:56;4.10;;;2.78;;
20298;SDS011;10308;42.688;23.256;2022-09-21T08:18:23;2.78;;;2.28;;
20298;SDS011;10308;42.688;23.256;2022-09-21T08:20:54;2.42;;;2.22;;
20298;SDS011;10308;42.688;23.256;2022-09-21T08:23:22;2.90;;;2.42;;
20298;SDS011;10308;42.688;23.256;2022-09-21T08:25:50;3.90;;;2.30;;
20298;SDS011;10308;42.688;23.256;2022-09-21T08:28:16;2.95;;;2.30;;
20298;SDS011;10308;42.688;23.256;2022-09-21T08:30:43;2.08;;;1.80;;
20298;SDS011;10308;42.688;23.256;2022-09-21T08:33:10;2.00;;;1.80;;
20298;SDS011;10308;42.688;23.256;2022-09-21T08:35:38;2.47;;;1.90;;
20298;SDS011;10308;42.688;23.256;2022-09-21T08:38:05;1.85;;;1.75;;
20298;SDS011;10308;42.688;23.256;2022-09-21T08:40:33;1.77;;;1.67;;
20298;SDS011;10308;42.688;23.256;2022-09-21T08:43:01;2.50;;;2.30;;
20298;SDS011;10308;42.688;23.256;2022-09-21T08:45:31;2.10;;;1.85;;
20298;SDS011;10308;42.688;23.256;2022-09-21T08:47:59;2.28;;;2.00;;
20298;SDS011;10308;42.688;23.256;2022-09-21T08:50:29;2.72;;;1.80;;
20298;SDS011;10308;42.688;23.256;2022-09-21T08:53:03;1.60;;;1.50;;
20298;SDS011;10308;42.688;23.256;2022-09-21T08:55:32;4.28;;;1.88;;
20298;SDS011;10308;42.688;23.256;2022-09-21T08:58:00;3.55;;;2.40;;
20298;SDS011;10308;42.688;23.256;2022-09-21T09:00:27;2.10;;;2.00;;
20298;SDS011;10308;42.688;23.256;2022-09-21T09:03:06;1.80;;;1.70;;
20298;SDS011;10308;42.688;23.256;2022-09-21T09:05:51;3.13;;;1.90;;
20298;SDS011;10308;42.688;23.256;2022-09-21T09:08:38;3.03;;;2.03;;
20298;SDS011;10308;42.688;23.256;2022-09-21T09:11:33;3.28;;;1.98;;
20298;SDS011;10308;42.688;23.256;2022-09-21T09:16:58;2.45;;;2.20;;
20298;SDS011;10308;42.688;23.256;2022-09-21T09:19:37;2.80;;;1.90;;
20298;SDS011;10308;42.688;23.256;2022-09-21T09:22:08;1.77;;;1.67;;
20298;SDS011;10308;42.688;23.256;2022-09-21T09:24:37;1.75;;;1.65;;
20298;SDS011;10308;42.688;23.256;2022-09-21T09:27:11;2.03;;;1.92;;
20298;SDS011;10308;42.688;23.256;2022-09-21T09:29:44;2.03;;;1.80;;
20298;SDS011;10308;42.688;23.256;2022-09-21T09:32:14;2.03;;;1.92;;
20298;SDS011;10308;42.688;23.256;2022-09-21T09:34:42;1.80;;;1.70;;
20298;SDS011;10308;42.688;23.256;2022-09-21T09:37:11;1.73;;;1.63;;
20298;SDS011;10308;42.688;23.256;2022-09-21T09:39:39;1.65;;;1.55;;
20298;SDS011;10308;42.688;23.256;2022-09-21T09:42:16;1.67;;;1.58;;
20298;SDS011;10308;42.688;23.256;2022-09-21T09:44:54;1.58;;;1.48;;
20298;SDS011;10308;42.688;23.256;2022-09-21T09:47:29;1.60;;;1.50;;
20298;SDS011;10308;42.688;23.256;2022-09-21T09:50:04;1.60;;;1.50;;
20298;SDS011;10308;42.688;23.256;2022-09-21T09:52:33;1.63;;;1.52;;
20298;SDS011;10308;42.688;23.256;2022-09-21T09:55:00;1.75;;;1.45;;
20298;SDS011;10308;42.688;23.256;2022-09-21T09:57:41;1.70;;;1.60;;
20298;SDS011;10308;42.688;23.256;2022-09-21T10:00:12;1.70;;;1.60;;
20298;SDS011;10308;42.688;23.256;2022-09-21T10:02:47;1.73;;;1.50;;
20298;SDS011;10308;42.688;23.256;2022-09-21T10:05:19;1.83;;;1.67;;
20298;SDS011;10308;42.688;23.256;2022-09-21T10:07:47;2.17;;;1.80;;
20298;SDS011;10308;42.688;23.256;2022-09-21T10:10:33;1.50;;;1.40;;
20298;SDS011;10308;42.688;23.256;2022-09-21T10:13:12;1.15;;;1.15;;
20298;SDS011;10308;42.688;23.256;2022-09-21T10:15:43;1.63;;;1.20;;
20298;SDS011;10308;42.688;23.256;2022-09-21T10:18:15;1.48;;;1.38;;
20298;SDS011;10308;42.688;23.256;2022-09-21T10:20:51;1.35;;;1.25;;
20298;SDS011;10308;42.688;23.256;2022-09-21T10:23:19;1.80;;;1.40;;
20298;SDS011;10308;42.688;23.256;2022-09-21T10:25:52;1.63;;;1.30;;
20298;SDS011;10308;42.688;23.256;2022-09-21T10:28:21;1.60;;;1.50;;
20298;SDS011;10308;42.688;23.256;2022-09-21T10:30:48;1.70;;;1.60;;
20298;SDS011;10308;42.688;23.256;2022-09-21T10:33:17;1.50;;;1.40;;
20298;SDS011;10308;42.688;23.256;2022-09-21T10:35:48;1.63;;;1.38;;
20298;SDS011;10308;42.688;23.256;2022-09-21T10:38:17;1.80;;;1.20;;
20298;SDS011;10308;42.688;23.256;2022-09-21T10:40:45;1.58;;;1.42;;
20298;SDS011;10308;42.688;23.256;2022-09-21T10:43:24;1.90;;;1.42;;
20298;SDS011;10308;42.688;23.256;2022-09-21T10:45:51;1.40;;;1.30;;
20298;SDS011;10308;42.688;23.256;2022-09-21T10:48:20;1.60;;;1.40;;
20298;SDS011;10308;42.688;23.256;2022-09-21T10:50:48;1.83;;;1.73;;
20298;SDS011;10308;42.688;23.256;2022-09-21T10:53:18;1.88;;;1.67;;
20298;SDS011;10308;42.688;23.256;2022-09-21T10:55:50;2.08;;;1.88;;
20298;SDS011;10308;42.688;23.256;2022-09-21T10:58:19;1.98;;;1.70;;
20298;SDS011;10308;42.688;23.256;2022-09-21T11:00:48;2.20;;;1.35;;
20298;SDS011;10308;42.688;23.256;2022-09-21T11:03:27;1.55;;;1.45;;
20298;SDS011;10308;42.688;23.256;2022-09-21T11:06:04;1.98;;;1.40;;
20298;SDS011;10308;42.688;23.256;2022-09-21T11:08:35;1.40;;;1.30;;
20298;SDS011;10308;42.688;23.256;2022-09-21T11:11:07;1.90;;;1.40;;
20298;SDS011;10308;42.688;23.256;2022-09-21T11:13:44;2.22;;;1.33;;
20298;SDS011;10308;42.688;23.256;2022-09-21T11:16:15;1.35;;;1.25;;
20298;SDS011;10308;42.688;23.256;2022-09-21T11:18:48;3.00;;;1.30;;
20298;SDS011;10308;42.688;23.256;2022-09-21T11:21:21;1.30;;;1.20;;
20298;SDS011;10308;42.688;23.256;2022-09-21T11:23:57;1.00;;;1.00;;
20298;SDS011;10308;42.688;23.256;2022-09-21T11:26:29;2.80;;;1.20;;
20298;SDS011;10308;42.688;23.256;2022-09-21T11:29:02;2.95;;;1.40;;
20298;SDS011;10308;42.688;23.256;2022-09-21T11:31:47;2.80;;;1.60;;
20298;SDS011;10308;42.688;23.256;2022-09-21T11:34:23;1.77;;;1.48;;
20298;SDS011;10308;42.688;23.256;2022-09-21T11:36:56;1.80;;;1.50;;
20298;SDS011;10308;42.688;23.256;2022-09-21T11:39:35;2.15;;;1.60;;
20298;SDS011;10308;42.688;23.256;2022-09-21T11:42:13;3.70;;;2.20;;
20298;SDS011;10308;42.688;23.256;2022-09-21T11:44:52;2.13;;;1.65;;
20298;SDS011;10308;42.688;23.256;2022-09-21T11:47:27;2.25;;;2.05;;
20298;SDS011;10308;42.688;23.256;2022-09-21T11:50:19;1.50;;;1.40;;
20298;SDS011;10308;42.688;23.256;2022-09-21T11:52:55;1.38;;;1.35;;
20298;SDS011;10308;42.688;23.256;2022-09-21T11:55:40;4.03;;;1.50;;
20298;SDS011;10308;42.688;23.256;2022-09-21T11:58:15;1.75;;;1.50;;
20298;SDS011;10308;42.688;23.256;2022-09-21T12:00:50;2.08;;;1.60;;
20298;SDS011;10308;42.688;23.256;2022-09-21T12:03:34;1.45;;;1.35;;
20298;SDS011;10308;42.688;23.256;2022-09-21T12:09:13;1.38;;;1.20;;
20298;SDS011;10308;42.688;23.256;2022-09-21T12:11:49;1.00;;;1.00;;
20298;SDS011;10308;42.688;23.256;2022-09-21T12:14:24;1.40;;;1.30;;
20298;SDS011;10308;42.688;23.256;2022-09-21T12:16:56;1.30;;;1.20;;
20298;SDS011;10308;42.688;23.256;2022-09-21T12:19:30;1.02;;;1.00;;
20298;SDS011;10308;42.688;23.256;2022-09-21T12:22:01;1.10;;;1.05;;
20298;SDS011;10308;42.688;23.256;2022-09-21T12:24:32;1.20;;;1.10;;
20298;SDS011;10308;42.688;23.256;2022-09-21T12:27:02;1.00;;;1.00;;
20298;SDS011;10308;42.688;23.256;2022-09-21T12:29:32;1.30;;;0.95;;
20298;SDS011;10308;42.688;23.256;2022-09-21T12:32:03;1.15;;;1.05;;
20298;SDS011;10308;42.688;23.256;2022-09-21T12:34:37;1.95;;;1.20;;
20298;SDS011;10308;42.688;23.256;2022-09-21T12:37:07;1.23;;;1.10;;
20298;SDS011;10308;42.688;23.256;2022-09-21T12:39:38;1.50;;;1.40;;
20298;SDS011;10308;42.688;23.256;2022-09-21T12:42:12;1.40;;;1.30;;
20298;SDS011;10308;42.688;23.256;2022-09-21T12:44:47;1.30;;;1.20;;
20298;SDS011;10308;42.688;23.256;2022-09-21T12:47:18;1.15;;;1.00;;
20298;SDS011;10308;42.688;23.256;2022-09-21T12:49:50;1.50;;;1.40;;
20298;SDS011;10308;42.688;23.256;2022-09-21T12:52:21;1.30;;;1.30;;
20298;SDS011;10308;42.688;23.256;2022-09-21T12:54:51;1.35;;;1.25;;
20298;SDS011;10308;42.688;23.256;2022-09-21T12:57:25;1.10;;;1.10;;
20298;SDS011;10308;42.688;23.256;2022-09-21T12:59:57;1.15;;;1.15;;
20298;SDS011;10308;42.688;23.256;2022-09-21T13:02:29;1.38;;;1.27;;
20298;SDS011;10308;42.688;23.256;2022-09-21T13:05:03;1.85;;;1.75;;
20298;SDS011;10308;42.688;23.256;2022-09-21T13:10:45;1.77;;;1.42;;
20298;SDS011;10308;42.688;23.256;2022-09-21T13:13:16;1.70;;;1.60;;
20298;SDS011;10308;42.688;23.256;2022-09-21T13:15:45;1.70;;;1.60;;
20298;SDS011;10308;42.688;23.256;2022-09-21T13:18:23;2.10;;;2.00;;
20298;SDS011;10308;42.688;23.256;2022-09-21T13:20:54;2.17;;;1.98;;
20298;SDS011;10308;42.688;23.256;2022-09-21T13:23:22;1.70;;;1.60;;
20298;SDS011;10308;42.688;23.256;2022-09-21T13:25:58;1.73;;;1.63;;
20298;SDS011;10308;42.688;23.256;2022-09-21T13:28:40;1.70;;;1.60;;
20298;SDS011;10308;42.688;23.256;2022-09-21T13:34:04;1.67;;;1.58;;
20298;SDS011;10308;42.688;23.256;2022-09-21T13:36:39;1.63;;;1.45;;
20298;SDS011;10308;42.688;23.256;2022-09-21T13:39:14;2.10;;;2.00;;
20298;SDS011;10308;42.688;23.256;2022-09-21T13:41:42;1.98;;;1.88;;
20298;SDS011;10308;42.688;23.256;2022-09-21T13:47:06;2.00;;;1.90;;
20298;SDS011;10308;42.688;23.256;2022-09-21T13:49:42;1.92;;;1.80;;
20298;SDS011;10308;42.688;23.256;2022-09-21T13:52:23;2.30;;;1.90;;
20298;SDS011;10308;42.688;23.256;2022-09-21T13:54:53;2.20;;;2.03;;
20298;SDS011;10308;42.688;23.256;2022-09-21T13:57:23;2.00;;;1.90;;
20298;SDS011;10308;42.688;23.256;2022-09-21T14:00:02;2.20;;;2.00;;
20298;SDS011;10308;42.688;23.256;2022-09-21T14:02:34;2.13;;;1.92;;
20298;SDS011;10308;42.688;23.256;2022-09-21T14:05:03;3.35;;;2.47;;
20298;SDS011;10308;42.688;23.256;2022-09-21T14:07:35;2.38;;;2.05;;
20298;SDS011;10308;42.688;23.256;2022-09-21T14:10:05;1.98;;;1.80;;
20298;SDS011;10308;42.688;23.256;2022-09-21T14:12:36;2.05;;;1.88;;
20298;SDS011;10308;42.688;23.256;2022-09-21T14:15:22;1.92;;;1.83;;
20298;SDS011;10308;42.688;23.256;2022-09-21T14:18:07;2.33;;;1.83;;
20298;SDS011;10308;42.688;23.256;2022-09-21T14:20:51;1.92;;;1.83;;
20298;SDS011;10308;42.688;23.256;2022-09-21T14:23:34;2.53;;;2.33;;
20298;SDS011;10308;42.688;23.256;2022-09-21T14:26:17;2.63;;;2.40;;
20298;SDS011;10308;42.688;23.256;2022-09-21T14:28:47;2.20;;;2.05;;
20298;SDS011;10308;42.688;23.256;2022-09-21T14:31:17;2.42;;;1.92;;
20298;SDS011;10308;42.688;23.256;2022-09-21T14:33:46;1.77;;;1.67;;
20298;SDS011;10308;42.688;23.256;2022-09-21T14:36:16;1.85;;;1.75;;
20298;SDS011;10308;42.688;23.256;2022-09-21T14:38:48;1.90;;;1.80;;
20298;SDS011;10308;42.688;23.256;2022-09-21T14:41:19;2.10;;;2.00;;
20298;SDS011;10308;42.688;23.256;2022-09-21T14:43:48;2.50;;;2.40;;
20298;SDS011;10308;42.688;23.256;2022-09-21T14:46:29;2.53;;;2.33;;
20298;SDS011;10308;42.688;23.256;2022-09-21T14:49:04;2.80;;;2.60;;
20298;SDS011;10308;42.688;23.256;2022-09-21T14:51:48;3.80;;;2.20;;
20298;SDS011;10308;42.688;23.256;2022-09-21T14:54:25;2.80;;;2.60;;
20298;SDS011;10308;42.688;23.256;2022-09-21T14:57:02;2.53;;;2.33;;
20298;SDS011;10308;42.688;23.256;2022-09-21T14:59:46;2.25;;;2.15;;
20298;SDS011;10308;42.688;23.256;2022-09-21T15:02:23;2.40;;;2.30;;
20298;SDS011;10308;42.688;23.256;2022-09-21T15:07:54;1.98;;;1.88;;
20298;SDS011;10308;42.688;23.256;2022-09-21T15:10:52;2.78;;;2.50;;
20298;SDS011;10308;42.688;23.256;2022-09-21T15:13:31;4.00;;;2.40;;
20298;SDS011;10308;42.688;23.256;2022-09-21T15:19:11;2.90;;;2.63;;
20298;SDS011;10308;42.688;23.256;2022-09-21T15:21:41;2.88;;;2.42;;